Time;durP1;ratioP1;P1;durP2;ratioP2;P2;SDS_P1;SDS_P2;PMS_P1;PMS_P2;Temp;Humidity;BMP_temperature;BMP_pressure;BME280_temperature;BME280_humidity;BME280_pressure;Samples;Min_cycle;Max_cycle;Signal;HPM_P1;HPM_P2
2022/01/15 00:02:56;;;;;;;12.05;5.53;;;;;;;3.51;100.00;99964.03;4096890;85;28463;-75
2022/01/15 00:08:57;;;;;;;17.00;6.30;;;;;;;3.45;100.00;99971.31;4100445;86;28487;-75
2022/01/15 00:15:00;;;;;;;13.70;6.00;;;;;;;3.48;100.00;99956.36;4097219;85;28513;-75
2022/01/15 00:21:01;;;;;;;15.60;6.40;;;;;;;3.43;100.00;99954.70;4130467;84;28481;-74
2022/01/15 00:27:03;;;;;;;17.92;6.85;;;;;;;3.22;100.00;99954.63;4115310;84;28558;-74
2022/01/15 00:33:05;;;;;;;14.85;6.22;;;;;;;3.31;100.00;99943.04;4099310;85;28503;-74
2022/01/15 00:39:06;;;;;;;19.48;6.33;;;;;;;3.23;100.00;99945.66;4100018;85;28488;-74
2022/01/15 00:45:14;;;;;;;20.68;6.78;;;;;;;3.10;100.00;99957.25;4068330;84;28556;-75
2022/01/15 00:51:14;;;;;;;19.02;6.33;;;;;;;3.14;100.00;99957.25;4088166;85;28558;-76
2022/01/15 00:57:15;;;;;;;16.12;6.30;;;;;;;3.21;100.00;99960.94;4097032;85;28580;-75
2022/01/15 01:03:16;;;;;;;18.25;5.72;;;;;;;3.23;100.00;99958.95;4093411;85;28592;-74
2022/01/15 01:09:19;;;;;;;16.32;5.80;;;;;;;3.08;100.00;99957.91;4093744;85;28541;-74
2022/01/15 01:28:03;;;;;;;17.37;5.95;;;;;;;2.88;100.00;99984.19;4031245;86;28484;-75
2022/01/15 01:34:06;;;;;;;18.10;6.40;;;;;;;2.96;100.00;99979.41;4044879;86;28507;-75
2022/01/15 01:40:25;;;;;;;18.00;6.55;;;;;;;3.04;100.00;99982.62;4027203;86;28556;-76
2022/01/15 01:52:27;;;;;;;23.47;6.60;;;;;;;3.08;100.00;99985.30;4034697;86;28534;-75
2022/01/15 01:58:28;;;;;;;18.55;7.08;;;;;;;3.04;100.00;99989.27;4031687;86;28577;-75
2022/01/15 02:04:29;;;;;;;17.70;7.30;;;;;;;2.98;100.00;99984.09;4032217;86;28533;-75
2022/01/15 02:10:32;;;;;;;21.60;7.62;;;;;;;3.18;100.00;99988.66;4037038;86;28564;-75
2022/01/15 02:16:33;;;;;;;17.67;7.05;;;;;;;3.43;100.00;99999.90;4033085;88;28602;-75
2022/01/15 02:29:00;;;;;;;20.05;7.42;;;;;;;3.51;100.00;100002.59;4042210;86;28539;-76
2022/01/15 02:35:03;;;;;;;20.97;7.50;;;;;;;3.27;100.00;100000.66;4060755;85;28559;-75
2022/01/15 02:41:06;;;;;;;18.73;6.95;;;;;;;3.08;100.00;99993.27;4097068;85;28568;-75
2022/01/15 02:53:10;;;;;;;20.97;7.87;;;;;;;3.05;100.00;100002.38;4025858;86;28549;-75
2022/01/15 02:59:21;;;;;;;17.98;8.05;;;;;;;2.77;100.00;99996.41;4025773;86;28517;-75
2022/01/15 03:05:22;;;;;;;17.32;7.25;;;;;;;2.59;100.00;100001.78;4031316;86;28533;-74
2022/01/15 03:11:24;;;;;;;18.95;7.10;;;;;;;2.62;100.00;100004.12;4043341;86;28506;-74
2022/01/15 03:17:26;;;;;;;17.02;7.12;;;;;;;2.51;100.00;100008.69;4059658;86;28523;-74
2022/01/15 03:23:28;;;;;;;14.68;6.87;;;;;;;2.57;100.00;100009.07;4033004;87;28503;-74
2022/01/15 03:29:30;;;;;;;17.75;6.00;;;;;;;2.49;100.00;100001.86;3989885;88;28519;-74
2022/01/15 03:35:32;;;;;;;16.35;6.55;;;;;;;2.41;100.00;100002.64;4058455;86;28539;-75
2022/01/15 03:41:33;;;;;;;16.50;6.72;;;;;;;2.42;100.00;100003.48;4106318;85;28539;-75
2022/01/15 03:47:35;;;;;;;19.70;7.35;;;;;;;2.31;100.00;100004.06;4146825;84;28528;-75
2022/01/15 03:53:36;;;;;;;23.62;7.58;;;;;;;2.29;100.00;99999.89;4140653;84;28495;-78
2022/01/15 03:59:37;;;;;;;19.70;7.72;;;;;;;2.24;100.00;100010.96;4144860;84;28532;-77
2022/01/15 04:05:39;;;;;;;20.65;6.78;;;;;;;2.14;100.00;100020.81;4145907;84;28508;-77
2022/01/15 04:11:40;;;;;;;18.00;6.28;;;;;;;2.10;100.00;100022.94;4144102;84;28512;-78
2022/01/15 04:17:44;;;;;;;16.97;5.70;;;;;;;2.11;100.00;100015.83;4135021;84;28611;-78
2022/01/15 04:23:45;;;;;;;19.95;7.33;;;;;;;2.06;100.00;100021.08;4134556;84;28511;-77
2022/01/15 04:29:46;;;;;;;17.45;5.75;;;;;;;1.97;100.00;100019.33;4143561;84;43952;-77
2022/01/15 04:35:47;;;;;;;19.05;6.12;;;;;;;1.86;100.00;100027.50;4149771;84;28511;-78
2022/01/15 04:41:49;;;;;;;20.37;6.53;;;;;;;1.80;100.00;100031.59;4139839;84;43952;-75
2022/01/15 04:47:50;;;;;;;19.35;6.75;;;;;;;1.92;100.00;100030.38;4119047;85;28608;-74
2022/01/15 04:53:51;;;;;;;14.35;5.92;;;;;;;1.89;100.00;100038.65;4122238;85;28479;-75
2022/01/15 04:59:53;;;;;;;15.65;5.72;;;;;;;1.81;100.00;100038.08;4131099;85;28538;-73
2022/01/15 05:05:54;;;;;;;14.10;5.53;;;;;;;1.83;100.00;100043.24;4031888;86;28557;-75
2022/01/15 05:12:02;;;;;;;17.95;6.55;;;;;;;1.61;100.00;100046.62;4076359;85;28510;-73
2022/01/15 05:17:59;;;;;;;13.88;5.40;;;;;;;1.86;100.00;100054.02;4075406;85;28588;-72
2022/01/15 05:24:00;;;;;;;17.52;6.50;;;;;;;1.74;100.00;100047.60;4032670;86;28542;-73
2022/01/15 05:30:07;;;;;;;17.60;7.05;;;;;;;1.87;100.00;100049.91;4107387;85;28503;-72
2022/01/15 05:36:08;;;;;;;20.20;8.70;;;;;;;1.91;100.00;100049.12;4076283;85;43985;-74
2022/01/15 05:42:09;;;;;;;24.12;9.48;;;;;;;1.95;100.00;100052.66;4077384;86;28499;-75
2022/01/15 05:48:11;;;;;;;23.73;9.98;;;;;;;2.05;100.00;100045.13;4140834;84;28524;-75
2022/01/15 05:54:13;;;;;;;26.37;11.78;;;;;;;1.98;100.00;100056.83;4141861;84;28505;-74
2022/01/15 06:00:15;;;;;;;27.55;11.25;;;;;;;1.88;100.00;100067.99;4065437;86;28548;-76
2022/01/15 06:06:16;;;;;;;25.55;10.30;;;;;;;1.95;100.00;100086.28;4108170;85;28552;-74
2022/01/15 06:12:18;;;;;;;28.85;12.07;;;;;;;1.98;100.00;100083.36;4109008;85;28563;-74
2022/01/15 06:18:20;;;;;;;28.95;10.93;;;;;;;1.75;100.00;100075.78;4111674;85;28580;-75
2022/01/15 06:24:21;;;;;;;29.82;11.40;;;;;;;1.70;100.00;100084.69;4112550;85;28534;-75
2022/01/15 06:30:22;;;;;;;28.05;10.75;;;;;;;1.75;100.00;100082.92;4112499;85;28545;-75
2022/01/15 06:36:25;;;;;;;34.18;11.78;;;;;;;1.86;100.00;100083.20;4110700;85;28528;-75
2022/01/15 06:42:26;;;;;;;30.57;9.98;;;;;;;1.84;100.00;100088.66;4107928;85;28553;-75
2022/01/15 06:48:30;;;;;;;28.75;9.65;;;;;;;1.80;100.00;100096.08;4102829;85;42911;-75
2022/01/15 06:54:31;;;;;;;24.70;10.00;;;;;;;1.79;100.00;100093.09;4101637;85;28547;-74
2022/01/15 07:00:32;;;;;;;25.20;10.18;;;;;;;1.78;100.00;100099.85;4106820;85;28511;-76
2022/01/15 07:06:34;;;;;;;25.30;8.85;;;;;;;1.73;100.00;100100.80;4098991;85;28597;-76
2022/01/15 07:12:35;;;;;;;22.30;9.48;;;;;;;1.75;100.00;100092.20;4099800;85;28507;-76
2022/01/15 07:18:36;;;;;;;24.75;9.78;;;;;;;1.83;100.00;100097.61;4098751;85;28485;-76
2022/01/15 07:24:38;;;;;;;26.62;9.70;;;;;;;1.88;100.00;100087.88;4082065;85;28525;-74
2022/01/15 07:30:39;;;;;;;28.17;10.00;;;;;;;1.89;100.00;100094.34;4115212;85;28481;-75
2022/01/15 07:36:41;;;;;;;27.32;9.43;;;;;;;1.78;100.00;100104.68;4072333;85;28549;-74
2022/01/15 07:42:44;;;;;;;27.10;9.58;;;;;;;2.03;100.00;100122.19;4091372;85;28505;-74
2022/01/15 07:48:45;;;;;;;24.57;9.68;;;;;;;2.18;100.00;100123.84;4131364;84;28506;-73
2022/01/15 07:54:46;;;;;;;24.05;9.03;;;;;;;2.31;100.00;100128.80;4067821;86;28901;-73
2022/01/15 08:00:47;;;;;;;23.30;8.18;;;;;;;2.51;100.00;100140.09;4105151;85;28544;-73
2022/01/15 08:06:48;;;;;;;24.45;8.28;;;;;;;2.56;100.00;100141.48;4130459;85;28557;-75
2022/01/15 08:12:50;;;;;;;20.77;7.35;;;;;;;2.64;100.00;100142.86;4095894;85;28549;-73
2022/01/15 08:18:51;;;;;;;20.43;7.70;;;;;;;2.67;100.00;100131.11;4138918;84;28518;-73
2022/01/15 08:24:52;;;;;;;18.17;7.40;;;;;;;2.46;100.00;100138.89;4117426;85;28490;-78
2022/01/15 08:30:54;;;;;;;16.57;5.92;;;;;;;2.55;100.00;100138.45;4151666;84;28518;-77
2022/01/15 08:36:55;;;;;;;18.82;6.67;;;;;;;2.63;100.00;100136.73;4109469;85;28526;-76
2022/01/15 08:42:57;;;;;;;25.85;7.55;;;;;;;2.64;100.00;100138.41;4127289;85;28532;-73
2022/01/15 08:48:58;;;;;;;22.52;7.45;;;;;;;2.60;100.00;100145.02;4097033;85;28530;-73
2022/01/15 08:54:59;;;;;;;19.40;7.08;;;;;;;2.63;100.00;100137.22;4071638;85;28504;-74
2022/01/15 09:01:01;;;;;;;19.17;7.92;;;;;;;2.69;100.00;100135.77;4039313;86;28551;-76
2022/01/15 09:07:04;;;;;;;22.52;6.70;;;;;;;2.78;100.00;100141.02;4072077;85;28544;-82
2022/01/15 09:13:05;;;;;;;23.47;7.60;;;;;;;2.95;100.00;100149.61;4077768;85;28522;-81
2022/01/15 09:19:07;;;;;;;21.12;7.42;;;;;;;3.21;100.00;100142.48;4073804;85;28504;-80
2022/01/15 09:25:10;;;;;;;19.42;7.40;;;;;;;3.17;100.00;100142.47;3999304;87;28567;-78
2022/01/15 09:31:12;;;;;;;18.45;6.85;;;;;;;3.28;100.00;100139.22;4056692;86;28553;-79
2022/01/15 09:37:13;;;;;;;21.48;7.30;;;;;;;3.34;100.00;100150.05;4056834;86;28547;-81
2022/01/15 09:43:15;;;;;;;21.30;7.47;;;;;;;3.53;100.00;100143.34;4077404;86;28526;-78
2022/01/15 09:49:19;;;;;;;17.57;6.05;;;;;;;3.36;100.00;100135.29;4041550;85;28550;-79
2022/01/15 09:55:23;;;;;;;16.35;6.22;;;;;;;3.38;100.00;100129.80;4050759;85;28533;-80
2022/01/15 10:01:31;;;;;;;21.57;6.95;;;;;;;3.29;100.00;100144.39;4088384;85;28565;-79
2022/01/15 10:07:32;;;;;;;17.12;5.80;;;;;;;3.48;100.00;100131.84;4149537;84;28565;-80
2022/01/15 10:13:44;;;;;;;21.87;7.72;;;;;;;3.53;100.00;100127.39;4111186;85;28543;-79
2022/01/15 10:19:47;;;;;;;21.37;7.45;;;;;;;3.48;100.00;100112.75;4133248;84;28581;-79
2022/01/15 10:26:18;;;;;;;18.80;7.12;;;;;;;3.53;100.00;100128.72;4150419;84;28510;-72
2022/01/15 10:32:20;;;;;;;23.05;7.47;;;;;;;3.51;100.00;100138.20;4110607;85;28528;-74
2022/01/15 10:38:21;;;;;;;19.02;7.55;;;;;;;3.55;100.00;100142.72;4126817;84;28520;-74
2022/01/15 10:44:34;;;;;;;26.57;8.65;;;;;;;3.62;100.00;100143.25;4115885;84;28582;-74
2022/01/15 10:50:37;;;;;;;20.62;7.80;;;;;;;3.74;100.00;100146.44;4136357;85;28472;-74
2022/01/15 10:56:38;;;;;;;24.37;8.85;;;;;;;3.92;100.00;100138.87;4114780;84;28559;-74
2022/01/15 11:02:44;;;;;;;25.92;9.13;;;;;;;4.00;100.00;100140.73;4039314;86;28455;-74
2022/01/15 11:08:50;;;;;;;16.30;6.78;;;;;;;3.88;100.00;100142.35;4115842;85;28573;-73
2022/01/15 11:14:51;;;;;;;25.68;9.23;;;;;;;4.08;100.00;100139.95;4093898;85;28504;-75
2022/01/15 11:20:56;;;;;;;23.22;8.88;;;;;;;4.05;100.00;100133.11;4114498;85;28596;-74
2022/01/15 11:27:00;;;;;;;19.20;8.30;;;;;;;4.19;100.00;100137.80;4129572;84;28523;-73
2022/01/15 11:33:02;;;;;;;20.05;7.45;;;;;;;4.28;100.00;100136.50;4151640;85;28517;-74
2022/01/15 11:39:07;;;;;;;17.02;7.12;;;;;;;4.41;100.00;100125.37;4110276;85;29078;-75
2022/01/15 11:45:14;;;;;;;23.00;7.13;;;;;;;4.64;100.00;100136.24;4125409;85;28596;-76
2022/01/15 11:51:21;;;;;;;19.75;6.92;;;;;;;4.65;100.00;100117.92;4109081;86;42081;-79
2022/01/15 11:57:35;;;;;;;16.48;6.67;;;;;;;4.80;100.00;100116.77;4093086;85;28546;-76
2022/01/15 12:03:39;;;;;;;16.37;6.28;;;;;;;4.67;100.00;100123.91;4081998;87;28499;-75
2022/01/15 12:09:44;;;;;;;16.90;6.55;;;;;;;4.70;100.00;100114.77;4100431;85;28559;-78
2022/01/15 12:15:48;;;;;;;20.17;6.85;;;;;;;4.78;100.00;100123.25;4098386;85;28447;-77
2022/01/15 12:21:55;;;;;;;23.35;7.05;;;;;;;4.84;100.00;100110.58;4103371;87;28543;-78
2022/01/15 12:28:09;;;;;;;18.37;6.58;;;;;;;4.73;100.00;100107.25;4039004;86;28512;-79
2022/01/15 12:34:10;;;;;;;16.05;6.75;;;;;;;4.77;100.00;100105.60;4115419;85;28543;-71
2022/01/15 12:40:12;;;;;;;18.52;6.53;;;;;;;4.76;100.00;100095.95;4084161;85;28511;-73
2022/01/15 12:46:17;;;;;;;19.55;7.08;;;;;;;4.76;100.00;100098.61;4125056;85;28585;-72
2022/01/15 12:52:27;;;;;;;19.73;8.05;;;;;;;4.57;100.00;100104.59;4153167;84;28548;-83
2022/01/15 12:58:28;;;;;;;27.65;8.83;;;;;;;4.51;100.00;100098.09;4115922;85;28525;-81
2022/01/15 13:04:30;;;;;;;19.57;7.85;;;;;;;4.59;100.00;100088.78;4146278;84;28504;-84
2022/01/15 13:10:49;;;;;;;19.27;8.13;;;;;;;4.68;100.00;100088.77;4082655;86;28526;-81
2022/01/15 13:16:50;;;;;;;20.30;7.70;;;;;;;4.69;100.00;100083.80;4100138;85;28515;-81
2022/01/15 13:22:53;;;;;;;16.97;6.85;;;;;;;4.66;100.00;100086.77;4117921;84;28527;-80
2022/01/15 13:29:02;;;;;;;21.73;7.83;;;;;;;4.66;100.00;100088.11;4119934;84;28522;-81
2022/01/15 13:35:12;;;;;;;18.00;7.33;;;;;;;4.65;100.00;100087.77;4118366;85;28524;-81
2022/01/15 13:41:22;;;;;;;19.15;7.22;;;;;;;4.57;100.00;100093.94;4104260;85;28497;-82
2022/01/15 13:47:24;;;;;;;19.87;7.00;;;;;;;4.39;100.00;100100.23;4108149;86;28599;-83
2022/01/15 13:53:42;;;;;;;16.75;6.30;;;;;;;4.38;100.00;100108.41;4037166;86;28526;-80
2022/01/15 13:59:43;;;;;;;19.20;6.50;;;;;;;4.33;100.00;100109.72;4061587;86;28564;-80
2022/01/15 14:05:57;;;;;;;15.20;5.42;;;;;;;4.25;100.00;100112.36;4044677;86;28553;-78
2022/01/15 14:12:10;;;;;;;19.52;5.33;;;;;;;4.24;100.00;100121.34;4034806;86;28500;-82
2022/01/15 14:18:18;;;;;;;16.27;5.67;;;;;;;4.18;100.00;100105.52;4110830;85;28576;-80
2022/01/15 14:24:22;;;;;;;17.77;6.00;;;;;;;4.22;100.00;100109.18;4100945;86;28533;-81
2022/01/15 14:30:23;;;;;;;19.77;5.83;;;;;;;4.26;100.00;100113.20;4076932;86;28552;-79
2022/01/15 14:36:25;;;;;;;20.50;6.35;;;;;;;4.12;100.00;100113.33;4082291;85;28493;-82
2022/01/15 14:42:27;;;;;;;19.90;6.50;;;;;;;4.00;100.00;100102.14;4033975;87;28550;-78
2022/01/15 14:48:30;;;;;;;18.65;5.55;;;;;;;3.75;100.00;100111.37;4069109;86;28514;-82
2022/01/15 14:54:33;;;;;;;18.85;5.97;;;;;;;3.89;100.00;100110.76;4130594;84;28468;-82
2022/01/15 15:00:34;;;;;;;28.27;7.28;;;;;;;3.63;100.00;100109.00;4063878;86;28498;-84
2022/01/15 15:06:38;;;;;;;20.40;7.35;;;;;;;3.43;100.00;100103.59;4141644;85;28502;-83
2022/01/15 15:12:43;;;;;;;23.62;7.33;;;;;;;3.34;100.00;100102.72;4119768;85;28510;-80
2022/01/15 15:18:42;;;;;;;23.75;7.78;;;;;;;3.45;100.00;100111.75;4148402;84;28524;-80
2022/01/15 15:24:43;;;;;;;27.87;9.48;;;;;;;3.23;100.00;100106.46;4152293;85;28532;-83
2022/01/15 15:30:45;;;;;;;26.07;9.33;;;;;;;3.10;100.00;100103.39;4094050;86;28551;-83
2022/01/15 15:36:46;;;;;;;26.15;9.73;;;;;;;3.02;100.00;100110.79;4141530;85;28514;-86
2022/01/15 15:42:48;;;;;;;24.27;8.93;;;;;;;2.92;100.00;100114.89;4056936;86;28515;-80
2022/01/15 15:48:49;;;;;;;27.67;11.45;;;;;;;2.75;100.00;100108.10;4088324;86;28554;-82
2022/01/15 15:54:51;;;;;;;28.12;10.98;;;;;;;2.78;100.00;100110.47;4091492;86;28616;-81
2022/01/15 16:00:55;;;;;;;29.30;11.55;;;;;;;2.61;100.00;100113.97;4118530;85;28517;-84
2022/01/15 16:06:57;;;;;;;35.40;12.98;;;;;;;2.55;100.00;100123.86;4086238;85;28565;-83
2022/01/15 16:12:58;;;;;;;33.90;11.83;;;;;;;2.48;100.00;100123.63;4064129;86;28610;-85
2022/01/15 16:18:59;;;;;;;38.85;13.72;;;;;;;2.48;100.00;100121.83;4066796;85;28520;-81
2022/01/15 16:25:03;;;;;;;34.25;13.25;;;;;;;2.50;100.00;100129.66;4078991;85;28515;-81
2022/01/15 16:31:04;;;;;;;42.33;14.47;;;;;;;2.29;100.00;100130.77;4074684;85;28623;-76
2022/01/15 16:37:07;;;;;;;41.80;15.23;;;;;;;2.19;100.00;100136.13;4071398;86;28563;-77
2022/01/15 16:43:08;;;;;;;44.67;16.10;;;;;;;2.11;100.00;100141.34;4086825;86;28545;-78
2022/01/15 16:49:10;;;;;;;39.73;16.17;;;;;;;2.04;100.00;100138.95;4103035;86;28566;-77
2022/01/15 16:55:17;;;;;;;42.65;16.52;;;;;;;1.99;100.00;100134.09;4106762;85;28531;-79
2022/01/15 17:01:19;;;;;;;42.35;16.00;;;;;;;1.90;100.00;100133.65;4053188;86;44467;-74
2022/01/15 17:07:20;;;;;;;40.33;16.20;;;;;;;1.93;100.00;100134.67;4062313;86;44462;-78
2022/01/15 17:13:23;;;;;;;48.33;17.87;;;;;;;1.94;100.00;100129.70;4048432;86;28553;-76
2022/01/15 17:19:25;;;;;;;47.30;18.10;;;;;;;1.88;100.00;100144.39;4067626;87;28507;-76
2022/01/15 17:25:27;;;;;;;45.48;17.50;;;;;;;1.85;100.00;100138.06;4064906;87;28521;-79
2022/01/15 17:31:29;;;;;;;47.48;18.32;;;;;;;1.73;100.00;100141.39;4068355;86;28523;-79
2022/01/15 17:37:30;;;;;;;49.23;19.85;;;;;;;1.63;100.00;100142.77;4068090;86;28538;-80
2022/01/15 17:43:32;;;;;;;49.27;19.50;;;;;;;1.62;100.00;100150.86;4062780;86;28551;-79
2022/01/15 17:49:33;;;;;;;58.42;20.62;;;;;;;1.82;100.00;100154.25;4066243;86;28582;-77
2022/01/15 17:55:34;;;;;;;53.78;19.30;;;;;;;1.77;100.00;100140.61;4065418;87;44190;-77
2022/01/15 18:01:36;;;;;;;53.38;19.95;;;;;;;1.80;100.00;100149.59;4087003;86;28510;-76
2022/01/15 18:07:37;;;;;;;49.98;19.85;;;;;;;1.60;100.00;100149.67;4067017;86;28581;-75
2022/01/15 18:13:38;;;;;;;52.17;19.42;;;;;;;1.32;100.00;100143.01;4065953;87;28518;-75
2022/01/15 18:19:41;;;;;;;42.13;18.25;;;;;;;1.41;100.00;100139.97;4064332;86;42933;-76
2022/01/15 18:25:44;;;;;;;45.73;17.85;;;;;;;1.00;100.00;100138.04;4047283;87;28501;-74
2022/01/15 18:31:46;;;;;;;52.33;19.50;;;;;;;1.07;100.00;100130.70;4072325;87;28591;-74
2022/01/15 18:37:48;;;;;;;50.60;19.80;;;;;;;0.83;100.00;100135.97;4130411;86;28536;-81
2022/01/15 18:43:49;;;;;;;53.98;20.77;;;;;;;0.77;100.00;100139.16;4132160;85;44129;-80
2022/01/15 18:49:51;;;;;;;57.08;20.40;;;;;;;0.73;100.00;100138.26;4122667;84;44144;-77
2022/01/15 18:55:52;;;;;;;62.85;23.05;;;;;;;0.68;100.00;100140.84;4123015;84;44467;-79
2022/01/15 19:01:57;;;;;;;60.58;22.32;;;;;;;0.79;100.00;100146.50;4121960;84;28553;-76
2022/01/15 19:07:57;;;;;;;52.00;21.68;;;;;;;0.77;100.00;100159.02;4124936;85;44101;-77
2022/01/15 19:13:58;;;;;;;69.90;25.97;;;;;;;0.87;100.00;100159.51;4116985;85;28520;-71
2022/01/15 19:20:00;;;;;;;63.65;23.60;;;;;;;1.10;100.00;100150.78;4119648;85;43788;-70
2022/01/15 19:26:02;;;;;;;62.58;23.57;;;;;;;1.04;100.00;100187.94;4071964;85;43759;-71
2022/01/15 19:32:04;;;;;;;66.67;24.95;;;;;;;1.10;100.00;100109.25;4109065;85;43771;-72
2022/01/15 19:38:05;;;;;;;63.20;24.47;;;;;;;1.03;100.00;100149.19;4116347;85;43747;-75
2022/01/15 19:44:07;;;;;;;61.30;23.20;;;;;;;1.19;100.00;100147.75;4109314;85;28509;-77
2022/01/15 19:50:12;;;;;;;71.53;25.35;;;;;;;1.00;100.00;100075.33;4111033;85;28560;-79
2022/01/15 19:56:16;;;;;;;63.42;24.23;;;;;;;1.13;100.00;100105.45;4070642;86;43760;-71
2022/01/15 20:02:20;;;;;;;66.90;25.12;;;;;;;1.09;100.00;100077.12;4129900;85;28571;-78
2022/01/15 20:08:21;;;;;;;65.55;26.82;;;;;;;0.99;100.00;100099.30;4117250;85;28510;-74
2022/01/15 20:14:25;;;;;;;67.20;25.48;;;;;;;0.94;100.00;100159.30;4122829;84;42930;-76
2022/01/15 20:20:29;;;;;;;69.45;26.60;;;;;;;1.11;100.00;100146.67;4116730;85;28552;-77
2022/01/15 20:26:33;;;;;;;60.75;24.80;;;;;;;1.13;100.00;100143.05;4126033;85;28569;-76
2022/01/15 20:32:34;;;;;;;63.92;26.27;;;;;;;0.59;100.00;100082.63;4114260;84;28569;-77
2022/01/15 20:38:35;;;;;;;68.07;26.00;;;;;;;0.61;100.00;100089.94;4102617;84;43737;-77
2022/01/15 20:44:37;;;;;;;72.90;27.87;;;;;;;0.47;100.00;100101.30;4100045;86;44142;-80
2022/01/15 20:50:40;;;;;;;77.67;29.42;;;;;;;0.26;100.00;100106.70;4081040;85;43786;-80
2022/01/15 20:56:41;;;;;;;67.40;29.15;;;;;;;0.50;100.00;100115.56;4096277;84;44123;-78
2022/01/15 21:02:43;;;;;;;74.67;29.20;;;;;;;0.37;100.00;100088.05;4049542;85;44174;-77
2022/01/15 21:08:46;;;;;;;89.40;32.75;;;;;;;0.41;100.00;100097.38;4029313;86;44147;-78
2022/01/15 21:14:48;;;;;;;80.92;30.55;;;;;;;0.35;100.00;100096.62;4047080;86;28554;-76
2022/01/15 21:20:51;;;;;;;86.25;32.38;;;;;;;0.38;100.00;100114.86;4049987;86;43249;-78
2022/01/15 21:26:53;;;;;;;81.57;32.90;;;;;;;0.25;100.00;100130.98;4039719;86;43141;-82
2022/01/15 21:32:58;;;;;;;74.60;31.27;;;;;;;0.13;100.00;100117.53;4052058;86;44159;-82
2022/01/15 21:39:02;;;;;;;84.33;34.73;;;;;;;0.19;100.00;100112.19;4057316;85;28549;-81
2022/01/15 21:45:05;;;;;;;96.10;34.45;;;;;;;0.10;100.00;100108.56;4053598;85;44160;-79
2022/01/15 21:51:07;;;;;;;78.83;32.33;;;;;;;0.04;100.00;100070.75;4063463;85;28555;-77
2022/01/15 21:57:08;;;;;;;77.42;30.85;;;;;;;0.25;100.00;100095.27;4068385;85;43433;-77
2022/01/15 22:03:10;;;;;;;70.15;29.87;;;;;;;0.30;100.00;100100.66;4045999;85;44143;-78
2022/01/15 22:09:12;;;;;;;78.40;31.10;;;;;;;0.12;100.00;100106.61;4075262;85;43742;-80
2022/01/15 22:15:17;;;;;;;89.95;31.82;;;;;;;0.21;100.00;100104.47;4065049;86;44146;-80
2022/01/15 22:21:18;;;;;;;84.47;31.37;;;;;;;0.12;100.00;100110.58;4076870;85;28556;-81
2022/01/15 22:27:20;;;;;;;89.80;33.95;;;;;;;-0.04;100.00;100101.37;4059129;85;44123;-78
2022/01/15 22:33:21;;;;;;;80.57;32.55;;;;;;;0.05;100.00;100093.10;4059717;85;43100;-80
2022/01/15 22:39:22;;;;;;;93.80;32.88;;;;;;;-0.13;100.00;100093.41;4070425;85;44123;-79
2022/01/15 22:45:25;;;;;;;79.47;31.95;;;;;;;-0.11;100.00;100100.23;4069448;85;43051;-82
2022/01/15 22:51:26;;;;;;;86.82;34.45;;;;;;;-0.06;100.00;100098.01;4064418;85;44158;-80
2022/01/15 22:57:28;;;;;;;86.87;34.70;;;;;;;-0.27;100.00;100102.55;4056651;85;44293;-78
2022/01/15 23:03:29;;;;;;;94.30;37.33;;;;;;;-0.21;100.00;100106.83;4154798;84;44421;-80
2022/01/15 23:09:30;;;;;;;82.70;33.35;;;;;;;-0.21;100.00;100103.34;4123874;85;43082;-80
2022/01/15 23:21:45;;;;;;;84.28;34.53;;;;;;;-0.41;100.00;100079.48;4152237;84;43084;-79
2022/01/15 23:27:47;;;;;;;88.00;34.63;;;;;;;-0.47;100.00;100086.61;4177914;84;44152;-79
2022/01/15 23:33:49;;;;;;;77.92;32.35;;;;;;;-0.34;100.00;100087.23;4151569;84;42583;-77
2022/01/15 23:39:50;;;;;;;82.08;33.10;;;;;;;-0.32;100.00;100084.44;4135085;84;43068;-78
2022/01/15 23:46:06;;;;;;;83.95;33.20;;;;;;;-0.30;100.00;100069.31;4095585;85;43061;-79
2022/01/15 23:51:57;;;;;;;86.15;32.98;;;;;;;-0.16;100.00;100070.24;4098750;85;43433;-79
2022/01/15 23:57:58;;;;;;;90.17;35.30;;;;;;;-0.53;100.00;100070.81;4067727;85;44095;-78
